createdAt,value
2018-01-10T00:01:12.758Z,6.80
2018-01-10T00:03:41.404Z,6.76
2018-01-10T00:06:10.078Z,6.73
2018-01-10T00:08:38.937Z,6.68
2018-01-10T00:11:07.531Z,6.81
2018-01-10T00:13:36.129Z,6.82
2018-01-10T00:16:04.796Z,6.81
2018-01-10T00:18:33.526Z,6.91
2018-01-10T00:21:02.157Z,6.86
2018-01-10T00:23:30.805Z,6.85
2018-01-10T00:25:59.392Z,6.86
2018-01-10T00:28:28.014Z,6.92
2018-01-10T00:30:56.623Z,6.89
2018-01-10T00:33:25.267Z,6.80
2018-01-10T00:35:53.919Z,6.78
2018-01-10T00:38:22.539Z,6.71
2018-01-10T00:40:51.149Z,6.69
2018-01-10T00:43:19.757Z,6.70
2018-01-10T00:45:48.357Z,6.80
2018-01-10T00:48:16.966Z,6.79
2018-01-10T00:50:45.585Z,6.80
2018-01-10T00:53:14.189Z,6.81
2018-01-10T00:55:42.785Z,6.79
2018-01-10T00:58:11.389Z,6.72
2018-01-10T01:00:40.135Z,6.68
2018-01-10T01:03:08.720Z,6.63
2018-01-10T01:05:38.308Z,6.58
2018-01-10T01:08:06.946Z,6.43
2018-01-10T01:10:35.539Z,6.77
2018-01-10T01:13:04.169Z,6.91
2018-01-10T01:15:32.765Z,6.89
2018-01-10T01:18:02.000Z,6.84
2018-01-10T01:20:30.596Z,6.83
2018-01-10T01:22:59.934Z,6.92
2018-01-10T01:25:28.545Z,6.90
2018-01-10T01:27:57.174Z,6.86
2018-01-10T01:30:25.810Z,6.84
2018-01-10T01:32:54.441Z,6.68
2018-01-10T01:35:23.072Z,6.71
2018-01-10T01:37:51.693Z,6.75
2018-01-10T01:40:20.290Z,6.75
2018-01-10T01:42:48.939Z,6.69
2018-01-10T01:45:17.553Z,6.63
2018-01-10T01:47:46.167Z,6.70
2018-01-10T01:50:14.843Z,6.85
2018-01-10T01:52:43.460Z,6.75
2018-01-10T01:55:12.039Z,6.83
2018-01-10T01:57:40.743Z,6.96
2018-01-10T02:00:09.350Z,6.95
2018-01-10T02:02:37.949Z,6.80
2018-01-10T02:05:06.565Z,6.62
2018-01-10T02:07:35.168Z,6.78
2018-01-10T02:10:03.781Z,6.62
2018-01-10T02:12:32.396Z,6.55
2018-01-10T02:15:01.006Z,6.55
2018-01-10T02:17:29.300Z,6.52
2018-01-10T02:19:57.641Z,6.53
2018-01-10T02:22:26.264Z,6.60
2018-01-10T02:24:54.721Z,6.60
2018-01-10T02:27:23.325Z,6.65
2018-01-10T02:29:51.933Z,6.66
2018-01-10T02:32:20.526Z,6.65
2018-01-10T02:34:49.148Z,6.67
2018-01-10T02:37:17.752Z,6.64
2018-01-10T02:39:46.385Z,6.70
2018-01-10T02:42:26.982Z,6.63
2018-01-10T02:44:55.632Z,6.56
2018-01-10T02:47:24.232Z,6.59
2018-01-10T02:49:52.814Z,6.59
2018-01-10T02:52:21.418Z,6.60
2018-01-10T02:54:50.038Z,6.64
2018-01-10T02:57:18.662Z,6.68
2018-01-10T02:59:47.273Z,6.72
2018-01-10T03:02:15.871Z,6.74
2018-01-10T03:04:44.551Z,6.79
2018-01-10T03:07:13.162Z,6.76
2018-01-10T03:09:41.753Z,6.69
2018-01-10T03:12:10.386Z,6.64
2018-01-10T03:14:39.001Z,6.61
2018-01-10T03:17:07.585Z,6.57
2018-01-10T03:19:36.204Z,6.61
2018-01-10T03:22:04.835Z,6.63
2018-01-10T03:24:33.497Z,6.63
2018-01-10T03:27:02.096Z,6.63
2018-01-10T03:29:30.721Z,6.63
2018-01-10T03:31:59.397Z,6.64
2018-01-10T03:34:27.994Z,6.62
2018-01-10T03:36:56.592Z,6.60
2018-01-10T03:39:25.208Z,6.58
2018-01-10T03:41:53.813Z,6.56
2018-01-10T03:44:22.161Z,6.54
2018-01-10T03:46:50.464Z,6.55
2018-01-10T03:49:18.793Z,6.50
2018-01-10T03:51:47.102Z,6.56
2018-01-10T03:54:15.485Z,6.52
2018-01-10T03:56:43.797Z,6.51
2018-01-10T03:59:12.083Z,6.45
2018-01-10T04:01:40.377Z,6.53
2018-01-10T04:04:08.706Z,6.65
2018-01-10T04:06:37.009Z,6.85
2018-01-10T04:09:05.340Z,6.79
2018-01-10T04:11:33.666Z,6.70
2018-01-10T04:14:02.289Z,6.65
2018-01-10T04:16:30.899Z,6.67
2018-01-10T04:18:59.550Z,6.74
2018-01-10T04:21:28.166Z,6.71
2018-01-10T04:23:56.764Z,6.52
2018-01-10T04:26:25.418Z,6.61
2018-01-10T04:28:54.527Z,6.71
2018-01-10T04:31:23.112Z,6.75
2018-01-10T04:33:51.725Z,6.64
2018-01-10T04:36:21.221Z,6.53
2018-01-10T04:38:49.808Z,6.52
2018-01-10T04:41:18.519Z,6.49
2018-01-10T04:43:47.146Z,6.43
2018-01-10T04:46:15.725Z,6.43
2018-01-10T04:48:44.354Z,6.46
2018-01-10T04:51:12.974Z,6.44
2018-01-10T04:53:41.643Z,6.44
2018-01-10T04:56:10.266Z,6.44
2018-01-10T04:58:38.978Z,6.44
2018-01-10T05:01:07.601Z,6.44
2018-01-10T05:03:36.183Z,6.44
2018-01-10T05:06:05.678Z,6.43
2018-01-10T05:08:34.299Z,6.41
2018-01-10T05:11:02.885Z,6.45
2018-01-10T05:13:31.494Z,6.42
2018-01-10T05:16:00.135Z,6.43
2018-01-10T05:18:28.734Z,6.43
2018-01-10T05:20:57.333Z,6.45
2018-01-10T05:23:25.949Z,6.52
2018-01-10T05:25:54.622Z,6.55
2018-01-10T05:28:23.211Z,6.52
2018-01-10T05:30:51.797Z,6.42
2018-01-10T05:33:20.431Z,6.42
2018-01-10T05:35:49.013Z,6.33
2018-01-10T05:38:17.596Z,6.38
2018-01-10T05:40:46.219Z,6.33
2018-01-10T05:43:14.820Z,6.41
2018-01-10T05:45:43.637Z,6.56
2018-01-10T05:48:12.496Z,6.40
2018-01-10T05:50:41.079Z,6.29
2018-01-10T05:53:09.916Z,6.46
2018-01-10T05:55:38.524Z,6.47
2018-01-10T05:58:07.147Z,6.54
2018-01-10T06:00:35.749Z,6.55
2018-01-10T06:03:04.364Z,6.35
2018-01-10T06:05:32.957Z,6.20
2018-01-10T06:08:01.567Z,6.15
2018-01-10T06:10:30.189Z,6.25
2018-01-10T06:12:58.879Z,6.25
2018-01-10T06:15:27.487Z,6.28
2018-01-10T06:17:56.110Z,6.28
2018-01-10T06:20:24.705Z,6.30
2018-01-10T06:22:54.773Z,6.35
2018-01-10T06:25:23.357Z,6.39
2018-01-10T06:27:52.069Z,6.40
2018-01-10T06:30:20.678Z,6.41
2018-01-10T06:32:49.285Z,6.43
2018-01-10T06:35:17.927Z,6.39
2018-01-10T06:37:46.588Z,6.37
2018-01-10T06:40:15.190Z,6.44
2018-01-10T06:42:43.794Z,6.40
2018-01-10T06:45:12.392Z,6.40
2018-01-10T06:47:40.997Z,6.39
2018-01-10T06:50:09.627Z,6.37
2018-01-10T06:52:38.230Z,6.40
2018-01-10T06:55:06.828Z,6.50
2018-01-10T06:57:35.482Z,6.56
2018-01-10T07:00:04.189Z,6.62
2018-01-10T07:02:32.806Z,6.67
2018-01-10T07:05:01.422Z,6.70
2018-01-10T07:07:30.029Z,6.90
2018-01-10T07:09:58.602Z,6.78
2018-01-10T07:12:27.219Z,6.71
2018-01-10T07:14:55.834Z,6.67
2018-01-10T07:17:24.430Z,6.67
2018-01-10T07:19:53.045Z,6.71
2018-01-10T07:22:21.627Z,6.72
2018-01-10T07:24:50.233Z,6.73
2018-01-10T07:27:18.830Z,6.72
2018-01-10T07:29:47.458Z,6.64
2018-01-10T07:32:16.043Z,6.76
2018-01-10T07:34:44.657Z,6.66
2018-01-10T07:37:13.249Z,6.61
2018-01-10T07:39:41.850Z,6.57
2018-01-10T07:42:10.515Z,6.51
2018-01-10T07:44:39.113Z,6.54
2018-01-10T07:47:07.723Z,6.51
2018-01-10T07:49:37.154Z,6.40
2018-01-10T07:52:05.776Z,6.36
2018-01-10T07:54:34.388Z,6.43
2018-01-10T07:57:04.088Z,6.46
2018-01-10T07:59:32.897Z,6.51
2018-01-10T08:02:01.497Z,6.57
2018-01-10T08:04:30.157Z,6.57
2018-01-10T08:06:58.749Z,6.61
2018-01-10T08:09:27.344Z,6.58
2018-01-10T08:11:55.954Z,6.63
2018-01-10T08:14:24.535Z,6.72
2018-01-10T08:16:53.200Z,6.82
2018-01-10T08:19:21.835Z,6.85
2018-01-10T08:21:50.473Z,6.93
2018-01-10T08:24:19.096Z,6.87
2018-01-10T08:26:47.714Z,6.94
2018-01-10T08:29:16.301Z,6.88
2018-01-10T08:31:45.009Z,6.85
2018-01-10T08:34:13.635Z,6.86
2018-01-10T08:36:42.276Z,6.90
2018-01-10T08:39:10.869Z,6.92
2018-01-10T08:41:39.492Z,6.96
2018-01-10T08:44:08.114Z,6.92
2018-01-10T08:46:36.701Z,6.81
2018-01-10T08:49:05.305Z,6.78
2018-01-10T08:51:33.920Z,6.88
2018-01-10T08:54:02.513Z,6.83
2018-01-10T08:56:31.140Z,6.82
2018-01-10T08:58:59.741Z,6.76
2018-01-10T09:01:28.328Z,6.76
2018-01-10T09:03:56.954Z,6.76
2018-01-10T09:06:25.567Z,6.78
2018-01-10T09:08:54.156Z,6.80
2018-01-10T09:11:22.807Z,6.81
2018-01-10T09:13:51.393Z,6.80
2018-01-10T09:16:20.001Z,6.93
2018-01-10T09:18:48.620Z,7.06
2018-01-10T09:21:17.231Z,7.26
2018-01-10T09:23:45.824Z,7.19
2018-01-10T09:26:14.446Z,7.29
2018-01-10T09:28:43.046Z,7.35
2018-01-10T09:31:11.680Z,7.29
2018-01-10T09:33:40.322Z,7.34
2018-01-10T09:36:09.544Z,7.46
2018-01-10T09:38:38.138Z,7.51
2018-01-10T09:41:06.733Z,7.48
2018-01-10T09:43:35.113Z,7.38
2018-01-10T09:46:03.753Z,7.37
2018-01-10T09:48:32.456Z,7.35
2018-01-10T09:51:01.054Z,7.31
2018-01-10T09:53:29.662Z,7.18
2018-01-10T09:55:58.268Z,7.36
2018-01-10T09:58:26.887Z,7.28
2018-01-10T10:00:55.502Z,7.13
2018-01-10T10:03:24.109Z,7.08
2018-01-10T10:05:52.737Z,7.08
2018-01-10T10:08:21.380Z,7.20
2018-01-10T10:10:49.972Z,6.99
2018-01-10T10:13:18.709Z,6.94
2018-01-10T10:15:47.340Z,7.10
2018-01-10T10:18:15.973Z,7.12
2018-01-10T10:20:44.741Z,7.04
2018-01-10T10:23:13.333Z,7.00
2018-01-10T10:25:42.079Z,7.06
2018-01-10T10:28:10.690Z,7.06
2018-01-10T10:30:39.320Z,7.23
2018-01-10T10:33:07.952Z,7.34
2018-01-10T10:35:36.585Z,7.46
2018-01-10T10:38:05.200Z,7.68
2018-01-10T10:40:33.520Z,8.17
2018-01-10T10:43:01.850Z,8.36
2018-01-10T10:45:30.164Z,8.57
2018-01-10T10:47:58.471Z,8.43
2018-01-10T10:50:26.776Z,8.30
2018-01-10T10:52:55.111Z,8.53
2018-01-10T10:55:23.408Z,8.64
2018-01-10T10:57:51.707Z,8.72
2018-01-10T11:00:20.068Z,8.64
2018-01-10T11:02:48.357Z,8.46
2018-01-10T11:05:16.691Z,8.71
2018-01-10T11:07:45.013Z,9.02
2018-01-10T11:10:13.320Z,9.09
2018-01-10T11:12:41.638Z,9.64
2018-01-10T11:15:09.961Z,9.30
2018-01-10T11:17:38.283Z,8.87
2018-01-10T11:20:06.660Z,8.45
2018-01-10T11:22:35.001Z,8.18
2018-01-10T11:25:04.195Z,8.03
2018-01-10T11:27:32.508Z,7.82
2018-01-10T11:30:00.824Z,7.80
2018-01-10T11:32:29.265Z,7.83
2018-01-10T11:34:57.569Z,7.87
2018-01-10T11:37:25.851Z,7.97
2018-01-10T11:39:54.278Z,7.93
2018-01-10T11:42:22.598Z,8.00
2018-01-10T11:44:51.724Z,7.84
2018-01-10T11:47:20.115Z,8.17
2018-01-10T11:49:48.502Z,8.51
2018-01-10T11:52:16.798Z,9.07
2018-01-10T11:54:45.143Z,9.29
2018-01-10T11:57:13.457Z,9.09
2018-01-10T11:59:41.779Z,9.27
2018-01-10T12:02:10.324Z,9.55
2018-01-10T12:04:38.622Z,9.79
2018-01-10T12:07:06.949Z,9.13
2018-01-10T12:09:35.240Z,9.62
2018-01-10T12:12:03.557Z,9.85
2018-01-10T12:14:31.964Z,9.54
2018-01-10T12:17:00.265Z,9.39
2018-01-10T12:19:28.594Z,9.21
2018-01-10T12:21:56.897Z,9.22
2018-01-10T12:24:25.188Z,9.12
2018-01-10T12:26:53.497Z,9.12
2018-01-10T12:29:21.822Z,9.06
2018-01-10T12:31:50.197Z,8.94
2018-01-10T12:34:19.048Z,8.82
2018-01-10T12:36:47.352Z,8.57
2018-01-10T12:39:15.689Z,8.12
2018-01-10T12:41:44.058Z,7.84
2018-01-10T12:44:12.353Z,7.75
2018-01-10T12:46:40.748Z,7.62
2018-01-10T12:49:09.049Z,7.55
2018-01-10T12:51:37.411Z,7.47
2018-01-10T12:54:05.704Z,7.46
2018-01-10T12:56:34.009Z,7.68
2018-01-10T12:59:02.409Z,7.75
2018-01-10T13:01:30.731Z,7.66
2018-01-10T13:03:59.050Z,7.58
2018-01-10T13:06:27.388Z,7.79
2018-01-10T13:08:55.796Z,7.70
2018-01-10T13:11:24.077Z,7.76
2018-01-10T13:13:52.402Z,7.73
2018-01-10T13:16:20.701Z,7.83
2018-01-10T13:18:49.067Z,7.74
2018-01-10T13:21:17.459Z,7.69
2018-01-10T13:23:45.807Z,7.85
2018-01-10T13:26:14.147Z,7.93
2018-01-10T13:28:42.438Z,7.82
2018-01-10T13:31:10.792Z,7.87
2018-01-10T13:33:39.143Z,7.85
2018-01-10T13:36:07.475Z,7.93
2018-01-10T13:38:35.767Z,8.11
2018-01-10T13:41:04.320Z,8.12
2018-01-10T13:43:32.621Z,8.11
2018-01-10T13:46:01.004Z,8.10
2018-01-10T13:48:29.365Z,8.24
2018-01-10T13:50:57.660Z,8.20
2018-01-10T13:53:25.977Z,8.29
2018-01-10T13:55:54.306Z,8.28
2018-01-10T13:58:22.604Z,8.12
2018-01-10T14:00:50.927Z,8.10
2018-01-10T14:03:19.273Z,8.04
2018-01-10T14:05:47.563Z,8.11
2018-01-10T14:08:16.146Z,7.82
2018-01-10T14:10:44.464Z,7.88
2018-01-10T14:13:12.791Z,7.91
2018-01-10T14:15:41.134Z,8.04
2018-01-10T14:18:09.456Z,7.91
2018-01-10T14:20:37.775Z,7.89
2018-01-10T14:23:06.125Z,7.93
2018-01-10T14:25:34.469Z,7.80
2018-01-10T14:28:02.772Z,7.84
2018-01-10T14:30:31.080Z,7.75
2018-01-10T14:33:00.336Z,7.66
2018-01-10T14:35:28.647Z,7.67
2018-01-10T14:37:56.965Z,7.66
2018-01-10T14:40:25.387Z,7.54
2018-01-10T14:42:53.968Z,7.63
2018-01-10T14:45:22.597Z,7.68
2018-01-10T14:47:51.218Z,7.58
2018-01-10T14:50:19.553Z,7.59
2018-01-10T14:52:47.945Z,7.67
2018-01-10T14:55:16.284Z,7.65
2018-01-10T14:57:44.586Z,7.68
2018-01-10T15:00:13.028Z,7.65
2018-01-10T15:02:41.314Z,7.67
2018-01-10T15:05:09.644Z,7.69
2018-01-10T15:07:38.274Z,7.73
2018-01-10T15:10:06.836Z,7.79
2018-01-10T15:12:35.128Z,7.67
2018-01-10T15:15:03.756Z,7.77
2018-01-10T15:17:32.349Z,7.84
2018-01-10T15:20:00.992Z,7.66
2018-01-10T15:22:29.607Z,7.52
2018-01-10T15:24:58.197Z,7.59
2018-01-10T15:27:26.831Z,7.57
2018-01-10T15:29:55.468Z,7.63
2018-01-10T15:32:24.057Z,7.66
2018-01-10T15:34:52.700Z,7.73
2018-01-10T15:37:21.314Z,7.64
2018-01-10T15:39:49.929Z,7.69
2018-01-10T15:42:18.554Z,7.70
2018-01-10T15:44:47.149Z,7.65
2018-01-10T15:47:15.743Z,7.56
2018-01-10T15:49:45.321Z,7.51
2018-01-10T15:52:13.904Z,7.52
2018-01-10T15:54:42.534Z,7.52
2018-01-10T15:57:11.149Z,7.50
2018-01-10T15:59:39.753Z,7.52
2018-01-10T16:02:08.432Z,7.38
2018-01-10T16:04:37.981Z,7.29
2018-01-10T16:07:07.386Z,7.30
2018-01-10T16:09:36.324Z,7.33
2018-01-10T16:12:05.842Z,7.37
2018-01-10T16:14:34.453Z,7.40
2018-01-10T16:17:03.070Z,7.52
2018-01-10T16:19:31.929Z,7.53
2018-01-10T16:22:00.558Z,7.53
2018-01-10T16:24:29.184Z,7.59
2018-01-10T16:26:57.792Z,7.53
2018-01-10T16:29:26.434Z,7.51
2018-01-10T16:31:55.037Z,7.40
2018-01-10T16:34:23.658Z,7.30
2018-01-10T16:36:52.289Z,7.32
2018-01-10T16:39:20.917Z,7.35
2018-01-10T16:41:49.610Z,7.27
2018-01-10T16:44:18.204Z,7.26
2018-01-10T16:46:46.834Z,7.36
2018-01-10T16:49:15.447Z,7.41
2018-01-10T16:51:44.063Z,7.32
2018-01-10T16:54:12.696Z,7.39
2018-01-10T16:56:41.370Z,7.49
2018-01-10T16:59:09.685Z,7.66
2018-01-10T17:01:37.988Z,7.40
2018-01-10T17:04:06.622Z,7.49
2018-01-10T17:06:36.173Z,7.50
2018-01-10T17:09:04.793Z,7.42
2018-01-10T17:11:33.626Z,7.31
2018-01-10T17:14:02.253Z,7.49
2018-01-10T17:16:30.876Z,7.42
2018-01-10T17:18:59.560Z,7.44
2018-01-10T17:21:28.173Z,7.55
2018-01-10T17:23:56.771Z,7.30
2018-01-10T17:26:25.429Z,7.15
2018-01-10T17:28:54.009Z,7.13
2018-01-10T17:31:22.633Z,7.04
2018-01-10T17:33:51.255Z,7.04
2018-01-10T17:36:19.905Z,7.01
2018-01-10T17:38:48.521Z,7.03
2018-01-10T17:41:17.141Z,7.08
2018-01-10T17:43:45.754Z,7.00
2018-01-10T17:46:14.366Z,7.00
2018-01-10T17:48:43.014Z,7.05
2018-01-10T17:51:11.445Z,7.06
2018-01-10T17:53:40.061Z,6.96
2018-01-10T17:56:08.678Z,7.06
2018-01-10T17:58:37.269Z,6.98
2018-01-10T18:01:05.905Z,7.11
2018-01-10T18:03:35.191Z,7.06
2018-01-10T18:06:03.869Z,6.92
2018-01-10T18:08:32.500Z,6.86
2018-01-10T18:11:01.116Z,6.90
2018-01-10T18:13:29.834Z,6.87
2018-01-10T18:15:58.469Z,6.81
2018-01-10T18:18:27.713Z,6.82
2018-01-10T18:20:56.341Z,6.87
2018-01-10T18:23:25.965Z,7.07
2018-01-10T18:25:54.269Z,6.99
2018-01-10T18:28:22.886Z,6.85
2018-01-10T18:30:51.562Z,6.86
2018-01-10T18:33:20.152Z,6.85
2018-01-10T18:35:48.811Z,6.87
2018-01-10T18:38:17.476Z,6.82
2018-01-10T18:40:46.088Z,6.87
2018-01-10T18:43:15.626Z,6.86
2018-01-10T18:45:44.498Z,6.82
2018-01-10T18:48:13.125Z,6.75
2018-01-10T18:50:41.734Z,6.76
2018-01-10T18:53:10.394Z,6.79
2018-01-10T18:55:39.045Z,6.76
2018-01-10T18:58:08.578Z,6.72
2018-01-10T19:00:37.209Z,6.73
2018-01-10T19:03:05.799Z,6.72
2018-01-10T19:05:34.485Z,6.72
2018-01-10T19:08:03.096Z,6.76
2018-01-10T19:10:31.800Z,6.78
2018-01-10T19:13:00.422Z,6.78
2018-01-10T19:15:29.038Z,6.77
2018-01-10T19:17:57.680Z,6.79
2018-01-10T19:20:26.949Z,6.68
2018-01-10T19:22:55.572Z,6.74
2018-01-10T19:25:24.203Z,6.75
2018-01-10T19:27:52.852Z,6.75
2018-01-10T19:30:21.480Z,6.77
2018-01-10T19:32:51.759Z,6.75
2018-01-10T19:35:20.388Z,6.70
2018-01-10T19:37:49.032Z,6.70
2018-01-10T19:40:17.626Z,6.72
2018-01-10T19:42:46.357Z,6.75
2018-01-10T19:45:15.024Z,6.83
2018-01-10T19:47:43.646Z,6.77
2018-01-10T19:50:12.269Z,6.76
2018-01-10T19:52:41.154Z,6.78
2018-01-10T19:55:09.763Z,6.70
2018-01-10T19:57:38.385Z,6.80
2018-01-10T20:00:06.984Z,6.74
2018-01-10T20:02:35.595Z,6.63
2018-01-10T20:05:04.253Z,6.71
2018-01-10T20:07:32.890Z,6.68
2018-01-10T20:10:01.521Z,6.74
2018-01-10T20:12:30.109Z,6.77
2018-01-10T20:14:58.699Z,6.72
2018-01-10T20:30:14.678Z,7.00
2018-01-10T20:32:43.301Z,6.89
2018-01-10T20:35:11.911Z,6.80
2018-01-10T20:37:40.634Z,6.84
2018-01-10T20:40:09.235Z,6.65
2018-01-10T20:42:37.870Z,6.52
2018-01-10T20:45:06.484Z,6.56
2018-01-10T20:47:35.078Z,6.44
2018-01-10T20:50:03.699Z,6.47
2018-01-10T20:52:32.349Z,6.47
2018-01-10T20:55:00.983Z,6.51
2018-01-10T20:57:29.617Z,6.44
2018-01-10T20:59:59.017Z,6.55
2018-01-10T21:02:27.650Z,6.56
2018-01-10T21:04:56.288Z,6.60
2018-01-10T21:07:24.918Z,6.65
2018-01-10T21:09:53.599Z,6.67
2018-01-10T21:12:22.214Z,6.60
2018-01-10T21:14:50.827Z,6.74
2018-01-10T21:17:19.458Z,6.70
2018-01-10T21:19:48.120Z,6.69
2018-01-10T21:22:16.717Z,6.67
2018-01-10T21:24:45.349Z,6.68
2018-01-10T21:27:14.001Z,6.74
2018-01-10T21:29:42.665Z,6.63
2018-01-10T21:32:11.297Z,6.62
2018-01-10T21:34:39.946Z,6.70
2018-01-10T21:37:08.551Z,6.81
2018-01-10T21:39:37.179Z,6.87
2018-01-10T21:42:05.829Z,6.77
2018-01-10T21:44:34.428Z,6.74
2018-01-10T21:47:03.056Z,6.66
2018-01-10T21:49:31.725Z,6.68
2018-01-10T21:52:00.340Z,6.73
2018-01-10T21:54:28.924Z,6.69
2018-01-10T21:56:57.556Z,6.78
2018-01-10T21:59:26.162Z,6.75
2018-01-10T22:01:54.815Z,6.69
2018-01-10T22:04:23.452Z,6.68
2018-01-10T22:06:52.072Z,6.72
2018-01-10T22:09:20.704Z,6.72
2018-01-10T22:11:49.368Z,6.72
2018-01-10T22:14:18.010Z,6.69
2018-01-10T22:16:46.643Z,6.67
2018-01-10T22:19:15.277Z,6.76
2018-01-10T22:21:43.869Z,6.66
2018-01-10T22:24:13.308Z,6.71
2018-01-10T22:26:41.938Z,6.75
2018-01-10T22:29:10.568Z,6.67
2018-01-10T22:31:39.192Z,6.61
2018-01-10T22:34:07.809Z,6.48
2018-01-10T22:36:36.425Z,6.51
2018-01-10T22:39:05.085Z,6.46
2018-01-10T22:41:33.711Z,6.43
2018-01-10T22:44:02.314Z,6.57
2018-01-10T22:46:30.949Z,6.48
2018-01-10T22:48:59.538Z,6.52
2018-01-10T22:51:28.184Z,6.39
2018-01-10T22:53:56.822Z,6.30
2018-01-10T22:56:25.418Z,6.24
2018-01-10T22:58:54.036Z,6.24
2018-01-10T23:01:22.669Z,6.21
2018-01-10T23:03:51.324Z,6.29
2018-01-10T23:06:19.948Z,6.27
2018-01-10T23:08:48.601Z,6.22
2018-01-10T23:11:17.227Z,6.21
2018-01-10T23:13:45.826Z,6.20
2018-01-10T23:16:14.464Z,6.26
2018-01-10T23:18:43.106Z,6.30
2018-01-10T23:21:11.711Z,6.30
2018-01-10T23:23:40.323Z,6.30
2018-01-10T23:26:08.954Z,6.30
2018-01-10T23:28:37.567Z,6.31
2018-01-10T23:31:06.150Z,6.32
2018-01-10T23:33:34.525Z,6.31
2018-01-10T23:36:02.861Z,6.42
2018-01-10T23:38:31.411Z,6.45
2018-01-10T23:41:00.048Z,6.47
2018-01-10T23:43:28.673Z,6.46
2018-01-10T23:45:57.284Z,6.63
2018-01-10T23:48:26.001Z,6.58
2018-01-10T23:50:55.674Z,6.51
2018-01-10T23:53:24.264Z,6.48
2018-01-10T23:55:53.599Z,6.40
2018-01-10T23:58:22.204Z,6.42
